Time;durP1;ratioP1;P1;durP2;ratioP2;P2;SDS_P1;SDS_P2;PMS_P1;PMS_P2;Temp;Humidity;BMP_temperature;BMP_pressure;BME280_temperature;BME280_humidity;BME280_pressure;Samples;Min_cycle;Max_cycle;Signal;HPM_P1;HPM_P2
2022/07/02 00:00:54;;;;;;;6.70;3.75;;;;;;;;;;5024308;28;20090;-79
2022/07/02 00:03:37;;;;;;;5.43;3.92;;;;;;;;;;5024093;28;20054;-78
2022/07/02 00:06:04;;;;;;;6.50;3.93;;;;;;;;;;5024584;28;20033;-79
2022/07/02 00:08:30;;;;;;;7.20;4.28;;;;;;;;;;5023944;28;20022;-79
2022/07/02 00:10:57;;;;;;;5.40;4.10;;;;;;;;;;5023539;28;20113;-78
2022/07/02 00:13:24;;;;;;;4.00;3.53;;;;;;;;;;5022772;28;20022;-78
2022/07/02 00:15:50;;;;;;;5.57;3.85;;;;;;;;;;5022973;28;20026;-78
2022/07/02 00:18:16;;;;;;;5.15;4.18;;;;;;;;;;5023321;28;20509;-78
2022/07/02 00:20:43;;;;;;;4.53;3.60;;;;;;;;;;5023000;28;20033;-79
2022/07/02 00:23:09;;;;;;;7.07;4.40;;;;;;;;;;5023041;28;20030;-81
2022/07/02 00:25:43;;;;;;;5.75;4.10;;;;;;;;;;5023369;28;20083;-79
2022/07/02 00:28:12;;;;;;;;;;;;;;;;;;5023347;28;20068;-80
2022/07/02 00:30:39;;;;;;;7.38;3.63;;;;;;;;;;5021639;28;19909;-78
2022/07/02 00:33:05;;;;;;;4.95;3.85;;;;;;;;;;5022939;28;20014;-79
2022/07/02 00:35:30;;;;;;;5.13;3.92;;;;;;;;;;5021743;28;20040;-79
2022/07/02 00:37:56;;;;;;;7.40;4.13;;;;;;;;;;5022106;28;20112;-79
2022/07/02 00:40:23;;;;;;;5.00;3.85;;;;;;;;;;5022240;28;20474;-78
2022/07/02 00:42:48;;;;;;;6.40;3.83;;;;;;;;;;5021834;28;20054;-80
2022/07/02 00:45:17;;;;;;;5.32;3.58;;;;;;;;;;5022915;28;20101;-79
2022/07/02 00:47:43;;;;;;;5.78;3.90;;;;;;;;;;5025363;28;20029;-79
2022/07/02 00:50:08;;;;;;;6.35;4.18;;;;;;;;;;5023093;28;20018;-80
2022/07/02 00:52:34;;;;;;;8.18;4.40;;;;;;;;;;5025219;28;20041;-79
2022/07/02 00:55:00;;;;;;;9.82;4.18;;;;;;;;;;5026336;28;20084;-79
2022/07/02 00:57:25;;;;;;;5.90;3.97;;;;;;;;;;5023727;28;20037;-78
2022/07/02 00:59:50;;;;;;;8.73;4.10;;;;;;;;;;5025041;28;20095;-80
2022/07/02 01:02:20;;;;;;;10.02;4.40;;;;;;;;;;5023988;28;20029;-79
2022/07/02 01:04:45;;;;;;;5.88;3.92;;;;;;;;;;5025830;28;20058;-79
2022/07/02 01:07:14;;;;;;;5.50;3.90;;;;;;;;;;5026506;28;20029;-79
2022/07/02 01:12:27;;;;;;;7.50;3.65;;;;;;;;;;5025360;28;20090;-80
2022/07/02 01:14:53;;;;;;;6.65;3.95;;;;;;;;;;5025974;28;20046;-79
2022/07/02 01:17:19;;;;;;;4.65;3.70;;;;;;;;;;5026771;28;20449;-80
2022/07/02 01:19:45;;;;;;;4.65;3.42;;;;;;;;;;5025402;28;20029;-80
2022/07/02 01:22:20;;;;;;;5.18;3.88;;;;;;;;;;5026078;28;20026;-79
2022/07/02 01:24:49;;;;;;;7.03;4.05;;;;;;;;;;5025858;28;20026;-79
2022/07/02 01:27:14;;;;;;;4.30;3.88;;;;;;;;;;5024254;28;20037;-78
2022/07/02 01:29:40;;;;;;;4.80;3.95;;;;;;;;;;5025059;28;20097;-79
2022/07/02 01:32:06;;;;;;;4.75;3.53;;;;;;;;;;5023787;28;20025;-80
2022/07/02 01:34:46;;;;;;;4.10;3.60;;;;;;;;;;5025319;28;20526;-78
2022/07/02 01:37:17;;;;;;;4.22;3.30;;;;;;;;;;5025643;28;20098;-79
2022/07/02 01:39:44;;;;;;;6.05;4.03;;;;;;;;;;5025072;28;20030;-79
2022/07/02 01:42:10;;;;;;;4.80;3.53;;;;;;;;;;5008730;28;20113;-80
2022/07/02 01:44:39;;;;;;;6.18;3.55;;;;;;;;;;5024815;28;20030;-80
2022/07/02 01:47:07;;;;;;;9.90;3.72;;;;;;;;;;5025329;28;20022;-79
2022/07/02 01:49:33;;;;;;;5.00;3.80;;;;;;;;;;5024686;28;20053;-79
2022/07/02 01:51:59;;;;;;;4.57;3.67;;;;;;;;;;5023402;28;20040;-79
2022/07/02 01:54:24;;;;;;;4.70;3.42;;;;;;;;;;5025420;28;20014;-80
2022/07/02 01:56:50;;;;;;;4.93;3.50;;;;;;;;;;5023839;28;20430;-78
2022/07/02 01:59:15;;;;;;;5.15;3.78;;;;;;;;;;5006621;28;20045;-78
2022/07/02 02:01:41;;;;;;;4.50;3.38;;;;;;;;;;5022937;28;20057;-79
2022/07/02 02:04:06;;;;;;;5.78;3.58;;;;;;;;;;5024456;28;20026;-78
2022/07/02 02:06:32;;;;;;;5.75;4.10;;;;;;;;;;5022932;28;20029;-80
2022/07/02 02:08:57;;;;;;;5.50;3.95;;;;;;;;;;5023359;28;20102;-79
2022/07/02 02:11:23;;;;;;;4.00;3.33;;;;;;;;;;5022181;28;20022;-79
2022/07/02 02:13:48;;;;;;;4.82;3.67;;;;;;;;;;5022508;28;20045;-79
2022/07/02 02:16:13;;;;;;;5.32;3.38;;;;;;;;;;5023136;28;20022;-77
2022/07/02 02:18:38;;;;;;;5.03;3.40;;;;;;;;;;5023872;28;20026;-79
2022/07/02 02:21:04;;;;;;;4.32;3.58;;;;;;;;;;5022465;28;20478;-80
2022/07/02 02:23:29;;;;;;;3.85;3.40;;;;;;;;;;5022421;28;20026;-78
2022/07/02 02:25:54;;;;;;;10.40;3.70;;;;;;;;;;5023482;28;20502;-78
2022/07/02 02:28:20;;;;;;;4.60;3.47;;;;;;;;;;5023115;28;20271;-79
2022/07/02 02:30:45;;;;;;;5.55;3.30;;;;;;;;;;5024646;28;20258;-78
2022/07/02 02:33:10;;;;;;;5.13;3.20;;;;;;;;;;5024423;28;20541;-78
2022/07/02 02:35:36;;;;;;;3.63;3.10;;;;;;;;;;5024983;28;20267;-79
2022/07/02 02:38:02;;;;;;;4.20;3.22;;;;;;;;;;5023179;28;20085;-80
2022/07/02 02:40:27;;;;;;;4.53;3.40;;;;;;;;;;5024056;28;20029;-79
2022/07/02 02:42:52;;;;;;;4.80;3.43;;;;;;;;;;5025217;28;20022;-79
2022/07/02 02:45:17;;;;;;;5.20;3.40;;;;;;;;;;5025284;28;20259;-81
2022/07/02 02:47:42;;;;;;;6.60;3.20;;;;;;;;;;5025335;28;20266;-77
2022/07/02 02:50:08;;;;;;;7.03;3.30;;;;;;;;;;5033306;28;20025;-79
2022/07/02 02:52:33;;;;;;;3.45;3.15;;;;;;;;;;5035466;28;20049;-79
2022/07/02 02:55:00;;;;;;;5.63;3.15;;;;;;;;;;5036315;28;20033;-79
2022/07/02 02:57:25;;;;;;;4.07;3.05;;;;;;;;;;5035559;28;20006;-77
2022/07/02 02:59:51;;;;;;;4.47;3.00;;;;;;;;;;5027093;28;20025;-79
2022/07/02 03:02:16;;;;;;;4.18;2.97;;;;;;;;;;5018005;28;20061;-79
2022/07/02 03:04:41;;;;;;;4.13;3.07;;;;;;;;;;5017681;28;20060;-78
2022/07/02 03:07:06;;;;;;;3.60;2.87;;;;;;;;;;5017733;28;20255;-77
2022/07/02 03:09:32;;;;;;;5.60;3.20;;;;;;;;;;5017297;28;20266;-78
2022/07/02 03:11:57;;;;;;;4.45;3.13;;;;;;;;;;5016847;28;20274;-78
2022/07/02 03:14:22;;;;;;;4.67;3.00;;;;;;;;;;5019223;28;20060;-78
2022/07/02 03:16:47;;;;;;;5.23;3.63;;;;;;;;;;5018933;28;20279;-79
2022/07/02 03:19:12;;;;;;;4.07;3.00;;;;;;;;;;5019730;28;20269;-79
2022/07/02 03:21:38;;;;;;;4.73;3.40;;;;;;;;;;5021091;28;20085;-78
2022/07/02 03:24:03;;;;;;;4.35;3.40;;;;;;;;;;5021075;28;20352;-77
2022/07/02 03:26:28;;;;;;;5.97;3.45;;;;;;;;;;5020527;28;20034;-77
2022/07/02 03:28:53;;;;;;;5.07;3.40;;;;;;;;;;5021581;28;20029;-78
2022/07/02 03:31:19;;;;;;;6.50;3.40;;;;;;;;;;5019409;28;20030;-79
2022/07/02 03:33:44;;;;;;;4.43;3.40;;;;;;;;;;5021217;28;20271;-79
2022/07/02 03:36:11;;;;;;;4.40;3.13;;;;;;;;;;5021276;28;20433;-79
2022/07/02 03:38:37;;;;;;;4.53;3.25;;;;;;;;;;5021720;28;20026;-79
2022/07/02 03:41:02;;;;;;;6.80;3.35;;;;;;;;;;5019632;28;20028;-78
2022/07/02 03:43:27;;;;;;;6.22;4.18;;;;;;;;;;5020842;28;20497;-78
2022/07/02 03:45:53;;;;;;;7.73;3.90;;;;;;;;;;5019790;28;20064;-77
2022/07/02 03:48:18;;;;;;;5.60;3.77;;;;;;;;;;5020822;28;20310;-77
2022/07/02 03:50:43;;;;;;;4.80;3.60;;;;;;;;;;5021341;28;20263;-79
2022/07/02 03:53:09;;;;;;;6.95;3.83;;;;;;;;;;5021345;28;20053;-79
2022/07/02 03:55:34;;;;;;;5.57;3.60;;;;;;;;;;5020038;28;20030;-79
2022/07/02 03:58:00;;;;;;;6.57;3.58;;;;;;;;;;5021523;28;20026;-78
2022/07/02 04:00:25;;;;;;;4.33;3.43;;;;;;;;;;5021954;28;20030;-79
2022/07/02 04:02:50;;;;;;;7.70;3.60;;;;;;;;;;5020183;28;20266;-79
2022/07/02 04:05:15;;;;;;;5.68;3.58;;;;;;;;;;5022822;28;20271;-79
2022/07/02 04:07:41;;;;;;;6.10;4.13;;;;;;;;;;5024728;28;20026;-79
2022/07/02 04:10:07;;;;;;;6.77;3.73;;;;;;;;;;5024192;28;20022;-79
2022/07/02 04:12:32;;;;;;;6.60;4.30;;;;;;;;;;5023323;28;20274;-79
2022/07/02 04:14:58;;;;;;;6.25;3.92;;;;;;;;;;5023842;28;20022;-78
2022/07/02 04:17:23;;;;;;;5.28;3.83;;;;;;;;;;5022748;28;20029;-77
2022/07/02 04:19:48;;;;;;;5.75;3.80;;;;;;;;;;5024100;28;20030;-79
2022/07/02 04:22:14;;;;;;;25.77;4.10;;;;;;;;;;5024010;28;20038;-80
2022/07/02 04:24:39;;;;;;;6.45;3.80;;;;;;;;;;5024232;28;20283;-80
2022/07/02 04:27:04;;;;;;;5.70;4.00;;;;;;;;;;5025613;28;20097;-80
2022/07/02 04:29:29;;;;;;;7.75;3.85;;;;;;;;;;5027541;28;20263;-79
2022/07/02 04:31:55;;;;;;;6.70;3.87;;;;;;;;;;5026771;28;20032;-80
2022/07/02 04:34:20;;;;;;;8.17;3.67;;;;;;;;;;5024978;28;20267;-79
2022/07/02 04:36:46;;;;;;;5.70;3.63;;;;;;;;;;5027136;28;20259;-80
2022/07/02 04:39:11;;;;;;;6.82;3.80;;;;;;;;;;5027115;28;20053;-80
2022/07/02 04:41:36;;;;;;;4.68;3.88;;;;;;;;;;5027718;28;20022;-79
2022/07/02 04:44:01;;;;;;;6.40;4.03;;;;;;;;;;5028213;28;20038;-78
2022/07/02 04:46:27;;;;;;;6.60;3.92;;;;;;;;;;5028149;28;20255;-79
2022/07/02 04:48:52;;;;;;;4.65;3.70;;;;;;;;;;5028009;28;20053;-80
2022/07/02 04:51:18;;;;;;;8.50;3.70;;;;;;;;;;5026707;28;20030;-78
2022/07/02 04:53:43;;;;;;;5.15;3.75;;;;;;;;;;5027532;28;20266;-80
2022/07/02 04:56:09;;;;;;;8.40;3.80;;;;;;;;;;5027831;28;20029;-80
2022/07/02 04:58:34;;;;;;;7.05;3.85;;;;;;;;;;5028739;28;20029;-80
2022/07/02 05:00:59;;;;;;;4.70;3.70;;;;;;;;;;5027604;28;20089;-78
2022/07/02 05:03:25;;;;;;;5.37;3.80;;;;;;;;;;5027484;28;20044;-79
2022/07/02 05:05:50;;;;;;;6.20;3.90;;;;;;;;;;5025813;28;20263;-79
2022/07/02 05:08:15;;;;;;;6.30;3.53;;;;;;;;;;5027654;28;20255;-81
2022/07/02 05:10:41;;;;;;;4.40;3.47;;;;;;;;;;5025947;28;20256;-81
2022/07/02 05:13:06;;;;;;;6.38;3.55;;;;;;;;;;5027327;28;20022;-79
2022/07/02 05:15:31;;;;;;;6.97;3.55;;;;;;;;;;5025681;28;20021;-80
2022/07/02 05:17:57;;;;;;;4.93;3.20;;;;;;;;;;5023789;28;20162;-79
2022/07/02 05:20:22;;;;;;;7.38;3.35;;;;;;;;;;5026100;28;20037;-80
2022/07/02 05:22:47;;;;;;;4.38;3.10;;;;;;;;;;5025623;28;20021;-80
2022/07/02 05:25:12;;;;;;;4.13;3.28;;;;;;;;;;5025117;28;20038;-80
2022/07/02 05:27:38;;;;;;;6.23;3.60;;;;;;;;;;5025210;28;20080;-80
2022/07/02 05:30:03;;;;;;;7.80;3.63;;;;;;;;;;5024261;28;20306;-80
2022/07/02 05:32:29;;;;;;;4.15;2.72;;;;;;;;;;5023943;28;20395;-78
2022/07/02 05:34:54;;;;;;;2.80;2.57;;;;;;;;;;5024919;28;20018;-81
2022/07/02 05:37:19;;;;;;;5.23;2.80;;;;;;;;;;5024089;28;20270;-78
2022/07/02 05:39:44;;;;;;;4.43;2.83;;;;;;;;;;5022636;28;20259;-79
2022/07/02 05:42:10;;;;;;;5.57;2.47;;;;;;;;;;5022376;28;20265;-78
2022/07/02 05:44:35;;;;;;;4.65;2.70;;;;;;;;;;5019298;28;20282;-80
2022/07/02 05:47:00;;;;;;;4.32;2.80;;;;;;;;;;5017654;28;20545;-80
2022/07/02 05:49:26;;;;;;;6.47;3.00;;;;;;;;;;5020720;28;20033;-80
2022/07/02 05:51:51;;;;;;;4.10;2.80;;;;;;;;;;5019935;28;20263;-79
2022/07/02 05:54:16;;;;;;;5.97;2.23;;;;;;;;;;5018307;28;20267;-80
2022/07/02 05:56:41;;;;;;;4.43;2.30;;;;;;;;;;5019619;28;20266;-80
2022/07/02 05:59:06;;;;;;;4.63;2.50;;;;;;;;;;5021998;28;20263;-80
2022/07/02 06:01:32;;;;;;;4.03;2.30;;;;;;;;;;5022609;28;20352;-80
2022/07/02 06:03:57;;;;;;;3.85;2.50;;;;;;;;;;5021381;28;20333;-79
2022/07/02 06:09:06;;;;;;;2.72;2.10;;;;;;;;;;5021113;28;20254;-79
2022/07/02 06:11:34;;;;;;;4.28;2.28;;;;;;;;;;5019518;28;20022;-81
2022/07/02 06:13:59;;;;;;;6.32;2.20;;;;;;;;;;5019750;28;20429;-79
2022/07/02 06:16:26;;;;;;;3.47;2.07;;;;;;;;;;5020862;28;20060;-79
2022/07/02 06:18:51;;;;;;;4.00;2.03;;;;;;;;;;5022332;28;20305;-80
2022/07/02 06:21:16;;;;;;;4.77;2.03;;;;;;;;;;5021979;28;20030;-79
2022/07/02 06:23:42;;;;;;;3.30;1.90;;;;;;;;;;5022215;28;20286;-81
2022/07/02 06:26:07;;;;;;;3.50;1.70;;;;;;;;;;5022041;28;20030;-80
2022/07/02 06:28:32;;;;;;;5.47;1.88;;;;;;;;;;5022067;28;20266;-80
2022/07/02 06:30:58;;;;;;;2.73;1.70;;;;;;;;;;5023258;28;20125;-79
2022/07/02 06:33:25;;;;;;;1.65;1.55;;;;;;;;;;5020797;28;20248;-80
2022/07/02 06:35:50;;;;;;;3.45;1.48;;;;;;;;;;5021090;28;20021;-80
2022/07/02 06:38:16;;;;;;;3.00;1.50;;;;;;;;;;5022061;28;20033;-80
2022/07/02 06:40:41;;;;;;;2.95;1.42;;;;;;;;;;5022058;28;20255;-79
2022/07/02 06:43:06;;;;;;;2.10;1.52;;;;;;;;;;5022404;28;20028;-79
2022/07/02 06:45:32;;;;;;;2.27;1.63;;;;;;;;;;5020686;28;20102;-79
2022/07/02 06:47:58;;;;;;;4.78;1.70;;;;;;;;;;5025286;28;20274;-81
2022/07/02 06:50:23;;;;;;;2.00;1.50;;;;;;;;;;5025343;28;20049;-81
2022/07/02 06:52:48;;;;;;;3.20;1.60;;;;;;;;;;5026863;28;20022;-81
2022/07/02 06:55:13;;;;;;;2.28;1.80;;;;;;;;;;5027572;28;20770;-81
2022/07/02 06:57:39;;;;;;;4.00;2.23;;;;;;;;;;5025843;28;20072;-80
2022/07/02 07:00:05;;;;;;;4.50;1.80;;;;;;;;;;5026254;28;20302;-80
2022/07/02 07:02:31;;;;;;;2.00;1.73;;;;;;;;;;5024651;28;20033;-80
2022/07/02 07:04:56;;;;;;;2.63;1.63;;;;;;;;;;5029311;28;20371;-81
2022/07/02 07:07:28;;;;;;;2.22;1.70;;;;;;;;;;5028263;28;20030;-80
2022/07/02 07:09:55;;;;;;;3.95;1.70;;;;;;;;;;5027261;28;20024;-81
2022/07/02 07:12:20;;;;;;;1.92;1.40;;;;;;;;;;5027288;28;20022;-81
2022/07/02 07:14:45;;;;;;;5.57;1.80;;;;;;;;;;5023869;28;20044;-80
2022/07/02 07:17:10;;;;;;;5.10;1.55;;;;;;;;;;5023603;28;20026;-80
2022/07/02 07:19:36;;;;;;;3.50;1.70;;;;;;;;;;5023990;28;20159;-80
2022/07/02 07:22:02;;;;;;;2.17;1.53;;;;;;;;;;5025702;28;20034;-80
2022/07/02 07:24:27;;;;;;;2.03;1.45;;;;;;;;;;5024248;28;20275;-80
2022/07/02 07:26:52;;;;;;;6.20;1.70;;;;;;;;;;5026164;28;20029;-80
2022/07/02 07:29:18;;;;;;;3.60;1.55;;;;;;;;;;5026177;28;20030;-81
2022/07/02 07:31:43;;;;;;;4.85;1.50;;;;;;;;;;5025628;28;20490;-81
2022/07/02 07:34:09;;;;;;;5.03;1.85;;;;;;;;;;5024664;28;20021;-80
2022/07/02 07:36:34;;;;;;;3.42;1.50;;;;;;;;;;5025444;28;20699;-80
2022/07/02 07:39:01;;;;;;;4.65;1.77;;;;;;;;;;5025681;28;20022;-79
2022/07/02 07:41:27;;;;;;;2.10;1.40;;;;;;;;;;5008811;28;20042;-81
2022/07/02 07:43:52;;;;;;;3.40;1.57;;;;;;;;;;5026723;28;20022;-81
2022/07/02 07:46:19;;;;;;;4.17;1.80;;;;;;;;;;5026604;28;20272;-80
2022/07/02 07:48:44;;;;;;;4.00;1.63;;;;;;;;;;5031220;28;20267;-80
2022/07/02 07:51:09;;;;;;;3.90;1.60;;;;;;;;;;5039125;28;20030;-79
2022/07/02 07:53:34;;;;;;;2.20;1.40;;;;;;;;;;5039636;28;20286;-81
2022/07/02 07:56:00;;;;;;;3.22;1.50;;;;;;;;;;5039672;28;20034;-81
2022/07/02 07:58:25;;;;;;;2.10;1.40;;;;;;;;;;5038990;28;20041;-79
2022/07/02 08:00:51;;;;;;;2.80;1.40;;;;;;;;;;5038105;28;20030;-80
2022/07/02 08:03:19;;;;;;;3.35;1.58;;;;;;;;;;5036986;28;20026;-81
2022/07/02 08:05:53;;;;;;;3.45;1.60;;;;;;;;;;5037318;28;20034;-78
2022/07/02 08:08:20;;;;;;;6.63;1.67;;;;;;;;;;5036006;28;20028;-79
2022/07/02 08:10:45;;;;;;;4.00;1.80;;;;;;;;;;5035387;28;20022;-78
2022/07/02 08:13:10;;;;;;;2.27;1.70;;;;;;;;;;5036280;28;20036;-80
2022/07/02 08:15:35;;;;;;;4.18;1.63;;;;;;;;;;5035650;28;20294;-78
2022/07/02 08:18:01;;;;;;;3.40;1.80;;;;;;;;;;5036804;28;20025;-78
2022/07/02 08:20:26;;;;;;;3.67;1.73;;;;;;;;;;5028467;28;20342;-78
2022/07/02 08:22:51;;;;;;;3.22;1.70;;;;;;;;;;5022253;28;20260;-79
2022/07/02 08:25:17;;;;;;;4.32;1.67;;;;;;;;;;5022086;28;20021;-79
2022/07/02 08:27:43;;;;;;;8.57;1.80;;;;;;;;;;5021670;28;20037;-80
2022/07/02 08:30:09;;;;;;;2.28;1.23;;;;;;;;;;5022770;28;20025;-80
2022/07/02 08:32:35;;;;;;;2.50;1.40;;;;;;;;;;5021864;28;20030;-79
2022/07/02 08:35:01;;;;;;;3.92;1.52;;;;;;;;;;5020164;28;20029;-79
2022/07/02 08:37:26;;;;;;;5.43;1.38;;;;;;;;;;5018585;28;20030;-78
2022/07/02 08:39:52;;;;;;;2.25;1.40;;;;;;;;;;5020581;28;20399;-79
2022/07/02 08:42:28;;;;;;;2.80;1.33;;;;;;;;;;5021623;28;20475;-79
2022/07/02 08:44:56;;;;;;;2.75;1.55;;;;;;;;;;5018464;28;20030;-79
2022/07/02 08:47:22;;;;;;;2.38;1.27;;;;;;;;;;5021136;28;20610;-79
2022/07/02 08:49:50;;;;;;;3.88;1.60;;;;;;;;;;5022322;28;20113;-79
2022/07/02 08:52:19;;;;;;;3.55;1.50;;;;;;;;;;5022146;28;20029;-78
2022/07/02 08:54:45;;;;;;;3.70;1.48;;;;;;;;;;5019706;28;20095;-79
2022/07/02 08:57:12;;;;;;;7.82;1.60;;;;;;;;;;5021204;28;20061;-79
2022/07/02 08:59:38;;;;;;;2.80;1.40;;;;;;;;;;5002825;28;20026;-77
2022/07/02 09:02:04;;;;;;;2.80;1.45;;;;;;;;;;5017463;28;20022;-77
2022/07/02 09:04:30;;;;;;;2.28;1.38;;;;;;;;;;5018279;28;20029;-77
2022/07/02 09:06:59;;;;;;;3.42;1.38;;;;;;;;;;5019857;28;20032;-78
2022/07/02 09:09:26;;;;;;;5.90;1.40;;;;;;;;;;5018164;28;20030;-78
2022/07/02 09:11:51;;;;;;;2.05;1.20;;;;;;;;;;5021103;28;20049;-77
2022/07/02 09:14:17;;;;;;;2.63;1.30;;;;;;;;;;5021869;28;20018;-77
2022/07/02 09:16:43;;;;;;;3.13;1.45;;;;;;;;;;5020066;28;20321;-78
2022/07/02 09:19:08;;;;;;;3.75;1.30;;;;;;;;;;5003751;28;20022;-77
2022/07/02 09:21:46;;;;;;;4.20;1.30;;;;;;;;;;5016483;28;20061;-77
2022/07/02 09:24:11;;;;;;;2.97;1.30;;;;;;;;;;4999040;28;20287;-77
2022/07/02 09:26:36;;;;;;;1.77;1.30;;;;;;;;;;5015332;28;20036;-77
2022/07/02 09:29:03;;;;;;;3.10;1.30;;;;;;;;;;5015414;28;20354;-76
2022/07/02 09:31:29;;;;;;;2.67;1.20;;;;;;;;;;5015998;28;20262;-77
2022/07/02 09:33:54;;;;;;;2.13;1.27;;;;;;;;;;5014378;28;20026;-77
2022/07/02 09:36:21;;;;;;;1.52;1.23;;;;;;;;;;5015963;28;20061;-76
2022/07/02 09:38:49;;;;;;;2.08;1.27;;;;;;;;;;5016214;28;20494;-78
2022/07/02 09:41:20;;;;;;;2.92;1.20;;;;;;;;;;5016119;28;20025;-77
2022/07/02 09:43:51;;;;;;;2.63;1.25;;;;;;;;;;5015829;28;20037;-77
2022/07/02 09:46:19;;;;;;;1.25;1.15;;;;;;;;;;5014385;28;20026;-77
2022/07/02 09:48:46;;;;;;;2.90;1.30;;;;;;;;;;5019267;28;20033;-76
2022/07/02 09:51:11;;;;;;;2.58;1.30;;;;;;;;;;5018016;28;20030;-78
2022/07/02 09:53:50;;;;;;;6.40;1.20;;;;;;;;;;5017086;28;20018;-79
2022/07/02 09:56:16;;;;;;;3.65;1.08;;;;;;;;;;5017048;28;20763;-78
2022/07/02 09:58:41;;;;;;;2.13;1.40;;;;;;;;;;5017316;28;20049;-77
2022/07/02 10:01:06;;;;;;;1.52;1.40;;;;;;;;;;5017459;28;20022;-77
2022/07/02 10:03:32;;;;;;;3.88;1.23;;;;;;;;;;5016607;28;20232;-77
2022/07/02 10:05:57;;;;;;;2.30;1.05;;;;;;;;;;5016304;28;20037;-79
2022/07/02 10:08:22;;;;;;;2.33;1.27;;;;;;;;;;5015503;28;20022;-77
2022/07/02 10:10:49;;;;;;;3.67;1.23;;;;;;;;;;5016039;28;20036;-77
2022/07/02 10:13:15;;;;;;;1.67;1.05;;;;;;;;;;5015583;28;20026;-77
2022/07/02 10:16:00;;;;;;;1.23;1.08;;;;;;;;;;5015167;28;20092;-78
2022/07/02 10:18:26;;;;;;;1.75;1.02;;;;;;;;;;5017368;28;20478;-78
2022/07/02 10:20:59;;;;;;;1.40;1.00;;;;;;;;;;5017497;28;20105;-77
2022/07/02 10:23:25;;;;;;;3.00;1.30;;;;;;;;;;5017068;28;20030;-78
2022/07/02 10:25:52;;;;;;;1.85;1.15;;;;;;;;;;5016267;28;20022;-78
2022/07/02 10:28:17;;;;;;;1.70;1.00;;;;;;;;;;5017818;28;20029;-78
2022/07/02 10:30:43;;;;;;;2.33;1.13;;;;;;;;;;5015182;28;20037;-77
2022/07/02 10:33:22;;;;;;;2.90;1.02;;;;;;;;;;5015316;28;20075;-77
2022/07/02 10:35:49;;;;;;;2.15;1.10;;;;;;;;;;5015864;28;20032;-77
2022/07/02 10:38:15;;;;;;;3.88;1.25;;;;;;;;;;5015299;28;20034;-77
2022/07/02 10:40:47;;;;;;;3.42;1.30;;;;;;;;;;5015785;28;20022;-77
2022/07/02 10:43:14;;;;;;;4.50;1.27;;;;;;;;;;5014964;28;20113;-77
2022/07/02 10:45:39;;;;;;;1.88;1.00;;;;;;;;;;5015723;28;20049;-78
2022/07/02 10:48:05;;;;;;;1.67;1.15;;;;;;;;;;5014659;28;20092;-78
2022/07/02 10:50:34;;;;;;;3.50;1.17;;;;;;;;;;5015393;28;20034;-77
2022/07/02 10:53:17;;;;;;;2.25;1.00;;;;;;;;;;5014870;28;20446;-77
2022/07/02 10:55:44;;;;;;;1.83;0.90;;;;;;;;;;5015419;28;20057;-78
2022/07/02 10:58:21;;;;;;;1.85;1.27;;;;;;;;;;5014852;28;20025;-78
2022/07/02 11:00:47;;;;;;;2.13;1.00;;;;;;;;;;5017467;28;20387;-78
2022/07/02 11:03:26;;;;;;;2.50;1.10;;;;;;;;;;5019572;28;20059;-77
2022/07/02 11:06:06;;;;;;;1.45;0.98;;;;;;;;;;5031676;28;20052;-77
2022/07/02 11:08:43;;;;;;;5.20;1.10;;;;;;;;;;5032254;28;20010;-77
2022/07/02 11:11:10;;;;;;;1.55;0.90;;;;;;;;;;5031345;28;20020;-76
2022/07/02 11:13:44;;;;;;;1.48;1.23;;;;;;;;;;5025055;28;20014;-77
2022/07/02 11:16:18;;;;;;;2.08;0.90;;;;;;;;;;5023666;28;20022;-77
2022/07/02 11:18:45;;;;;;;1.10;1.00;;;;;;;;;;5020768;28;20048;-77
2022/07/02 11:21:12;;;;;;;5.55;1.25;;;;;;;;;;5021036;28;20021;-77
2022/07/02 11:23:38;;;;;;;2.65;1.10;;;;;;;;;;5022194;28;20033;-78
2022/07/02 11:26:04;;;;;;;1.73;1.00;;;;;;;;;;5023577;28;20037;-77
2022/07/02 11:28:29;;;;;;;1.23;1.00;;;;;;;;;;5023892;28;20026;-77
2022/07/02 11:30:58;;;;;;;4.38;2.42;;;;;;;;;;5022704;28;20045;-77
2022/07/02 11:33:23;;;;;;;2.95;2.05;;;;;;;;;;5023121;28;20079;-78
2022/07/02 11:35:51;;;;;;;2.15;1.00;;;;;;;;;;5021430;28;20049;-77
2022/07/02 11:38:20;;;;;;;4.55;1.13;;;;;;;;;;5020459;28;20040;-77
2022/07/02 11:40:45;;;;;;;1.35;1.00;;;;;;;;;;5021200;28;20089;-77
2022/07/02 11:43:15;;;;;;;2.78;1.00;;;;;;;;;;5019764;28;20057;-77
2022/07/02 11:45:44;;;;;;;2.20;1.13;;;;;;;;;;5021902;28;20398;-78
2022/07/02 11:48:21;;;;;;;2.20;1.30;;;;;;;;;;5021641;28;20079;-77
2022/07/02 11:50:57;;;;;;;5.32;1.10;;;;;;;;;;5020349;28;20088;-78
2022/07/02 11:53:23;;;;;;;2.20;1.20;;;;;;;;;;5021969;28;20093;-77
2022/07/02 11:55:49;;;;;;;4.18;1.10;;;;;;;;;;5004830;28;20064;-77
2022/07/02 11:58:14;;;;;;;1.30;1.00;;;;;;;;;;5023303;28;20029;-78
2022/07/02 12:00:39;;;;;;;1.93;1.00;;;;;;;;;;5023112;28;20026;-77
2022/07/02 12:03:09;;;;;;;6.97;1.30;;;;;;;;;;5022594;28;20264;-77
2022/07/02 12:05:34;;;;;;;2.85;1.20;;;;;;;;;;5021249;28;20506;-77
2022/07/02 12:08:00;;;;;;;3.00;1.17;;;;;;;;;;5021964;28;20034;-77
2022/07/02 12:10:25;;;;;;;2.35;1.08;;;;;;;;;;5022281;28;20033;-78
2022/07/02 12:12:50;;;;;;;3.27;1.30;;;;;;;;;;5021471;28;20076;-77
2022/07/02 12:15:16;;;;;;;2.25;1.00;;;;;;;;;;5022257;28;20259;-79
2022/07/02 12:17:48;;;;;;;1.48;1.10;;;;;;;;;;5004896;28;20061;-78
2022/07/02 12:20:16;;;;;;;4.47;1.25;;;;;;;;;;5023503;28;20038;-77
2022/07/02 12:22:41;;;;;;;1.00;0.80;;;;;;;;;;5023124;28;20030;-80
2022/07/02 12:25:07;;;;;;;3.03;1.10;;;;;;;;;;5021596;28;20072;-80
2022/07/02 12:27:36;;;;;;;2.03;1.10;;;;;;;;;;5021055;28;20036;-78
2022/07/02 12:30:14;;;;;;;2.85;1.08;;;;;;;;;;5006263;28;20045;-79
2022/07/02 12:32:40;;;;;;;2.63;1.00;;;;;;;;;;5026212;28;20033;-79
2022/07/02 12:35:08;;;;;;;6.30;1.40;;;;;;;;;;5022804;28;20022;-78
2022/07/02 12:37:36;;;;;;;2.47;1.00;;;;;;;;;;5020355;28;20062;-80
2022/07/02 12:40:10;;;;;;;6.03;1.10;;;;;;;;;;5018950;28;20390;-79
2022/07/02 12:42:47;;;;;;;1.50;1.02;;;;;;;;;;5020686;28;20064;-79
2022/07/02 12:45:22;;;;;;;2.22;1.00;;;;;;;;;;5018945;28;20029;-81
2022/07/02 12:47:56;;;;;;;2.63;0.90;;;;;;;;;;5019056;28;20036;-80
2022/07/02 12:50:21;;;;;;;1.02;0.88;;;;;;;;;;5017758;28;20053;-80
2022/07/02 12:52:50;;;;;;;2.05;0.90;;;;;;;;;;5019582;28;20478;-81
2022/07/02 12:55:30;;;;;;;1.35;0.98;;;;;;;;;;5018801;28;20029;-83
2022/07/02 12:57:58;;;;;;;2.38;1.08;;;;;;;;;;5018903;28;20414;-80
2022/07/02 13:00:25;;;;;;;1.80;1.15;;;;;;;;;;5019249;28;20112;-80
2022/07/02 13:03:08;;;;;;;4.75;1.00;;;;;;;;;;5019790;28;20037;-80
2022/07/02 13:05:39;;;;;;;1.98;1.00;;;;;;;;;;5019349;28;20034;-80
2022/07/02 13:08:04;;;;;;;2.25;1.08;;;;;;;;;;5018662;28;20025;-80
2022/07/02 13:10:33;;;;;;;3.10;1.00;;;;;;;;;;5018541;28;20036;-80
2022/07/02 13:12:58;;;;;;;1.70;0.90;;;;;;;;;;5018724;28;20037;-80
2022/07/02 13:15:24;;;;;;;2.90;1.05;;;;;;;;;;5018638;28;20026;-83
2022/07/02 13:17:49;;;;;;;1.55;1.00;;;;;;;;;;5018704;28;20036;-80
2022/07/02 13:20:15;;;;;;;1.45;0.90;;;;;;;;;;5002050;28;20080;-82
2022/07/02 13:22:41;;;;;;;3.33;1.02;;;;;;;;;;5018625;28;20053;-80
2022/07/02 13:25:08;;;;;;;1.75;1.10;;;;;;;;;;5017089;28;20032;-82
2022/07/02 13:27:34;;;;;;;1.50;1.00;;;;;;;;;;5017403;28;20036;-81
2022/07/02 13:30:00;;;;;;;1.38;1.20;;;;;;;;;;5019548;28;20017;-80
2022/07/02 13:32:26;;;;;;;1.40;0.90;;;;;;;;;;5018660;28;20025;-81
2022/07/02 13:34:51;;;;;;;0.90;0.88;;;;;;;;;;5019061;28;20113;-80
2022/07/02 13:37:17;;;;;;;3.28;1.10;;;;;;;;;;5018777;28;20080;-81
2022/07/02 13:39:43;;;;;;;1.80;0.90;;;;;;;;;;5017914;28;20040;-80
2022/07/02 13:42:09;;;;;;;2.10;1.20;;;;;;;;;;5017803;28;20096;-80
2022/07/02 13:44:34;;;;;;;2.88;1.00;;;;;;;;;;5016863;28;20107;-81
2022/07/02 13:46:59;;;;;;;2.15;1.00;;;;;;;;;;5017721;28;20033;-81
2022/07/02 13:49:25;;;;;;;1.52;0.90;;;;;;;;;;5019705;28;20042;-81
2022/07/02 13:51:51;;;;;;;6.38;1.17;;;;;;;;;;5018616;28;20030;-81
2022/07/02 13:54:16;;;;;;;1.42;1.10;;;;;;;;;;5018708;28;20022;-81
2022/07/02 13:56:41;;;;;;;1.20;1.00;;;;;;;;;;5018189;28;20494;-80
2022/07/02 13:59:06;;;;;;;2.87;1.07;;;;;;;;;;5016469;28;20018;-81
2022/07/02 14:01:32;;;;;;;3.65;1.10;;;;;;;;;;5017793;28;20259;-79
2022/07/02 14:03:58;;;;;;;1.63;0.98;;;;;;;;;;5017035;28;20101;-81
2022/07/02 14:06:24;;;;;;;3.30;1.08;;;;;;;;;;5017984;28;20029;-81
2022/07/02 14:08:49;;;;;;;2.25;1.00;;;;;;;;;;5017442;28;20116;-80
2022/07/02 14:11:14;;;;;;;1.35;0.80;;;;;;;;;;5018005;28;20033;-81
2022/07/02 14:13:40;;;;;;;4.00;1.00;;;;;;;;;;5018038;28;20097;-80
2022/07/02 14:16:06;;;;;;;1.85;1.00;;;;;;;;;;5018037;28;20049;-81
2022/07/02 14:18:31;;;;;;;2.65;1.00;;;;;;;;;;5017098;28;20018;-81
2022/07/02 14:20:57;;;;;;;1.40;1.00;;;;;;;;;;5018327;28;20041;-81
2022/07/02 14:23:22;;;;;;;4.60;1.08;;;;;;;;;;5018440;28;20505;-81
2022/07/02 14:25:47;;;;;;;3.03;0.90;;;;;;;;;;5018040;28;20021;-81
2022/07/02 14:28:18;;;;;;;3.17;1.03;;;;;;;;;;5016486;28;20259;-81
2022/07/02 14:30:43;;;;;;;0.98;0.85;;;;;;;;;;5017247;28;20616;-81
2022/07/02 14:33:09;;;;;;;1.92;1.00;;;;;;;;;;5018302;28;20022;-81
2022/07/02 14:35:34;;;;;;;2.07;1.03;;;;;;;;;;5017435;28;20041;-80
2022/07/02 14:37:59;;;;;;;1.73;0.90;;;;;;;;;;5017983;28;20255;-82
2022/07/02 14:40:25;;;;;;;1.67;0.90;;;;;;;;;;5017642;28;20267;-80
2022/07/02 14:42:50;;;;;;;0.77;0.75;;;;;;;;;;5017801;28;20266;-82
2022/07/02 14:45:15;;;;;;;2.20;1.00;;;;;;;;;;5017570;28;20041;-80